sensor_id;sensor_type;location;lat;lon;timestamp;pressure;altitude;pressure_sealevel;temperature;humidity
18323;BME280;9287;49.456;11.064;2023-07-02T00:00:39;97405.09;;;18.98;100.00
18323;BME280;9287;49.456;11.064;2023-07-02T00:03:06;97394.34;;;19.04;100.00
18323;BME280;9287;49.456;11.064;2023-07-02T00:05:36;97401.31;;;18.89;100.00
18323;BME280;9287;49.456;11.064;2023-07-02T00:08:04;97392.94;;;18.92;100.00
18323;BME280;9287;49.456;11.064;2023-07-02T00:10:34;97396.00;;;18.74;100.00
18323;BME280;9287;49.456;11.064;2023-07-02T00:13:02;97400.94;;;18.63;100.00
18323;BME280;9287;49.456;11.064;2023-07-02T00:15:30;97398.31;;;18.80;100.00
18323;BME280;9287;49.456;11.064;2023-07-02T00:17:58;97395.78;;;18.89;100.00
18323;BME280;9287;49.456;11.064;2023-07-02T00:20:26;97404.56;;;18.84;100.00
18323;BME280;9287;49.456;11.064;2023-07-02T00:22:54;97404.56;;;18.84;100.00
18323;BME280;9287;49.456;11.064;2023-07-02T00:25:22;97400.81;;;18.94;100.00
18323;BME280;9287;49.456;11.064;2023-07-02T00:27:52;97404.69;;;18.76;100.00
18323;BME280;9287;49.456;11.064;2023-07-02T00:30:21;97410.38;;;18.66;100.00
18323;BME280;9287;49.456;11.064;2023-07-02T00:32:49;97399.22;;;18.46;100.00
18323;BME280;9287;49.456;11.064;2023-07-02T00:35:18;97409.91;;;18.44;100.00
18323;BME280;9287;49.456;11.064;2023-07-02T00:37:46;97416.25;;;18.41;100.00
18323;BME280;9287;49.456;11.064;2023-07-02T00:40:14;97414.41;;;18.61;100.00
18323;BME280;9287;49.456;11.064;2023-07-02T00:42:42;97407.22;;;18.67;100.00
18323;BME280;9287;49.456;11.064;2023-07-02T00:45:11;97402.50;;;18.64;100.00
18323;BME280;9287;49.456;11.064;2023-07-02T00:47:40;97412.75;;;18.67;100.00
18323;BME280;9287;49.456;11.064;2023-07-02T00:50:08;97418.28;;;18.67;100.00
18323;BME280;9287;49.456;11.064;2023-07-02T00:52:37;97399.28;;;18.69;100.00
18323;BME280;9287;49.456;11.064;2023-07-02T00:55:06;97405.28;;;18.64;100.00
18323;BME280;9287;49.456;11.064;2023-07-02T00:57:34;97408.78;;;18.68;100.00
18323;BME280;9287;49.456;11.064;2023-07-02T01:00:02;97397.47;;;18.83;100.00
18323;BME280;9287;49.456;11.064;2023-07-02T01:02:31;97392.53;;;18.94;100.00
18323;BME280;9287;49.456;11.064;2023-07-02T01:04:59;97403.72;;;18.87;100.00
18323;BME280;9287;49.456;11.064;2023-07-02T01:07:28;97412.00;;;18.63;100.00
18323;BME280;9287;49.456;11.064;2023-07-02T01:09:56;97410.06;;;18.60;100.00
18323;BME280;9287;49.456;11.064;2023-07-02T01:12:24;97406.69;;;18.49;100.00
18323;BME280;9287;49.456;11.064;2023-07-02T01:14:56;97418.88;;;18.78;100.00
18323;BME280;9287;49.456;11.064;2023-07-02T01:17:27;97425.78;;;18.90;100.00
18323;BME280;9287;49.456;11.064;2023-07-02T01:20:07;97417.25;;;18.54;100.00
18323;BME280;9287;49.456;11.064;2023-07-02T01:22:36;97423.06;;;18.63;100.00
18323;BME280;9287;49.456;11.064;2023-07-02T01:25:05;97427.03;;;18.62;100.00
18323;BME280;9287;49.456;11.064;2023-07-02T01:27:35;97429.69;;;18.69;100.00
18323;BME280;9287;49.456;11.064;2023-07-02T01:30:05;97422.19;;;18.70;100.00
18323;BME280;9287;49.456;11.064;2023-07-02T01:32:34;97421.03;;;18.67;100.00
18323;BME280;9287;49.456;11.064;2023-07-02T01:35:02;97414.13;;;18.52;100.00
18323;BME280;9287;49.456;11.064;2023-07-02T01:37:31;97423.31;;;18.72;100.00
18323;BME280;9287;49.456;11.064;2023-07-02T01:40:05;97425.69;;;18.70;100.00
18323;BME280;9287;49.456;11.064;2023-07-02T01:42:34;97430.53;;;18.90;100.00
18323;BME280;9287;49.456;11.064;2023-07-02T01:45:02;97421.53;;;18.86;100.00
18323;BME280;9287;49.456;11.064;2023-07-02T01:47:30;97422.72;;;18.85;100.00
18323;BME280;9287;49.456;11.064;2023-07-02T01:49:58;97428.63;;;18.87;100.00
18323;BME280;9287;49.456;11.064;2023-07-02T01:52:26;97432.66;;;18.82;100.00
18323;BME280;9287;49.456;11.064;2023-07-02T01:54:57;97427.63;;;18.73;100.00
18323;BME280;9287;49.456;11.064;2023-07-02T01:57:25;97428.72;;;18.80;100.00
18323;BME280;9287;49.456;11.064;2023-07-02T01:59:53;97418.13;;;18.74;100.00
18323;BME280;9287;49.456;11.064;2023-07-02T02:02:20;97438.59;;;18.81;100.00
18323;BME280;9287;49.456;11.064;2023-07-02T02:04:48;97439.44;;;18.77;100.00
18323;BME280;9287;49.456;11.064;2023-07-02T02:07:16;97432.47;;;18.69;100.00
18323;BME280;9287;49.456;11.064;2023-07-02T02:09:45;97441.28;;;18.57;100.00
18323;BME280;9287;49.456;11.064;2023-07-02T02:12:14;97439.03;;;18.52;100.00
18323;BME280;9287;49.456;11.064;2023-07-02T02:14:42;97443.88;;;18.71;100.00
18323;BME280;9287;49.456;11.064;2023-07-02T02:17:10;97437.25;;;18.65;100.00
18323;BME280;9287;49.456;11.064;2023-07-02T02:19:38;97449.22;;;18.55;100.00
18323;BME280;9287;49.456;11.064;2023-07-02T02:22:05;97455.78;;;18.38;100.00
18323;BME280;9287;49.456;11.064;2023-07-02T02:24:33;97455.31;;;18.43;100.00
18323;BME280;9287;49.456;11.064;2023-07-02T02:27:01;97451.72;;;18.46;100.00
18323;BME280;9287;49.456;11.064;2023-07-02T02:29:31;97453.19;;;18.54;100.00
18323;BME280;9287;49.456;11.064;2023-07-02T02:31:58;97457.94;;;18.54;100.00
18323;BME280;9287;49.456;11.064;2023-07-02T02:34:26;97462.06;;;18.42;100.00
18323;BME280;9287;49.456;11.064;2023-07-02T02:36:55;97455.78;;;18.38;100.00
18323;BME280;9287;49.456;11.064;2023-07-02T02:39:23;97449.06;;;18.39;100.00
18323;BME280;9287;49.456;11.064;2023-07-02T02:41:51;97454.19;;;18.40;100.00
18323;BME280;9287;49.456;11.064;2023-07-02T02:44:19;97449.84;;;18.13;100.00
18323;BME280;9287;49.456;11.064;2023-07-02T02:46:49;97462.44;;;18.14;100.00
18323;BME280;9287;49.456;11.064;2023-07-02T02:49:16;97456.00;;;18.24;100.00
18323;BME280;9287;49.456;11.064;2023-07-02T02:51:44;97451.41;;;18.14;100.00
18323;BME280;9287;49.456;11.064;2023-07-02T02:54:12;97454.06;;;17.90;100.00
18323;BME280;9287;49.456;11.064;2023-07-02T02:56:40;97450.09;;;17.91;100.00
18323;BME280;9287;49.456;11.064;2023-07-02T02:59:08;97448.53;;;17.90;100.00
18323;BME280;9287;49.456;11.064;2023-07-02T03:01:35;97457.81;;;17.73;100.00
18323;BME280;9287;49.456;11.064;2023-07-02T03:04:05;97450.34;;;17.70;100.00
18323;BME280;9287;49.456;11.064;2023-07-02T03:06:34;97456.69;;;17.67;100.00
18323;BME280;9287;49.456;11.064;2023-07-02T03:09:02;97457.66;;;17.84;100.00
18323;BME280;9287;49.456;11.064;2023-07-02T03:11:32;97458.19;;;17.75;100.00
18323;BME280;9287;49.456;11.064;2023-07-02T03:14:00;97462.06;;;17.81;100.00
18323;BME280;9287;49.456;11.064;2023-07-02T03:16:30;97467.03;;;17.93;100.00
18323;BME280;9287;49.456;11.064;2023-07-02T03:18:58;97466.13;;;18.03;100.00
18323;BME280;9287;49.456;11.064;2023-07-02T03:21:30;97472.06;;;18.02;100.00
18323;BME280;9287;49.456;11.064;2023-07-02T03:24:02;97468.88;;;18.03;100.00
18323;BME280;9287;49.456;11.064;2023-07-02T03:26:30;97477.88;;;17.77;100.00
18323;BME280;9287;49.456;11.064;2023-07-02T03:28:58;97482.50;;;17.87;100.00
18323;BME280;9287;49.456;11.064;2023-07-02T03:31:27;97477.72;;;17.91;100.00
18323;BME280;9287;49.456;11.064;2023-07-02T03:33:56;97489.59;;;17.88;100.00
18323;BME280;9287;49.456;11.064;2023-07-02T03:36:26;97483.44;;;17.73;100.00
18323;BME280;9287;49.456;11.064;2023-07-02T03:38:56;97484.16;;;17.81;100.00
18323;BME280;9287;49.456;11.064;2023-07-02T03:41:27;97494.41;;;17.81;100.00
18323;BME280;9287;49.456;11.064;2023-07-02T03:43:56;97494.41;;;17.81;100.00
18323;BME280;9287;49.456;11.064;2023-07-02T03:46:24;97491.09;;;17.96;100.00
18323;BME280;9287;49.456;11.064;2023-07-02T03:48:53;97497.47;;;17.90;100.00
18323;BME280;9287;49.456;11.064;2023-07-02T03:51:22;97492.03;;;17.83;100.00
18323;BME280;9287;49.456;11.064;2023-07-02T03:53:49;97497.75;;;17.65;100.00
18323;BME280;9287;49.456;11.064;2023-07-02T03:56:19;97502.38;;;17.75;100.00
18323;BME280;9287;49.456;11.064;2023-07-02T03:58:47;97502.13;;;17.96;100.00
18323;BME280;9287;49.456;11.064;2023-07-02T04:01:15;97515.25;;;17.48;100.00
18323;BME280;9287;49.456;11.064;2023-07-02T04:03:48;97517.66;;;17.42;100.00
18323;BME280;9287;49.456;11.064;2023-07-02T04:06:18;97521.09;;;17.53;100.00
18323;BME280;9287;49.456;11.064;2023-07-02T04:08:47;97514.97;;;17.76;100.00
18323;BME280;9287;49.456;11.064;2023-07-02T04:11:15;97521.91;;;17.91;100.00
18323;BME280;9287;49.456;11.064;2023-07-02T04:13:44;97524.47;;;17.75;100.00
18323;BME280;9287;49.456;11.064;2023-07-02T04:16:12;97528.25;;;17.88;100.00
18323;BME280;9287;49.456;11.064;2023-07-02T04:18:40;97524.72;;;17.47;100.00
18323;BME280;9287;49.456;11.064;2023-07-02T04:21:09;97522.06;;;17.77;100.00
18323;BME280;9287;49.456;11.064;2023-07-02T04:23:40;97535.53;;;17.71;100.00
18323;BME280;9287;49.456;11.064;2023-07-02T04:26:08;97533.44;;;17.42;100.00
18323;BME280;9287;49.456;11.064;2023-07-02T04:28:58;97537.97;;;17.66;100.00
18323;BME280;9287;49.456;11.064;2023-07-02T04:31:26;97536.34;;;17.68;100.00
18323;BME280;9287;49.456;11.064;2023-07-02T04:33:54;97540.97;;;17.82;100.00
18323;BME280;9287;49.456;11.064;2023-07-02T04:36:22;97546.59;;;17.68;100.00
18323;BME280;9287;49.456;11.064;2023-07-02T04:38:50;97545.34;;;17.76;100.00
18323;BME280;9287;49.456;11.064;2023-07-02T04:41:18;97547.31;;;17.79;100.00
18323;BME280;9287;49.456;11.064;2023-07-02T04:43:46;97555.56;;;17.83;100.00
18323;BME280;9287;49.456;11.064;2023-07-02T04:46:16;97547.94;;;17.49;100.00
18323;BME280;9287;49.456;11.064;2023-07-02T04:48:45;97549.31;;;17.75;100.00
18323;BME280;9287;49.456;11.064;2023-07-02T04:51:13;97554.88;;;17.68;100.00
18323;BME280;9287;49.456;11.064;2023-07-02T04:53:42;97549.75;;;17.70;100.00
18323;BME280;9287;49.456;11.064;2023-07-02T04:56:11;97560.09;;;17.59;100.00
18323;BME280;9287;49.456;11.064;2023-07-02T04:58:38;97563.72;;;17.93;100.00
18323;BME280;9287;49.456;11.064;2023-07-02T05:01:09;97561.19;;;18.06;100.00
18323;BME280;9287;49.456;11.064;2023-07-02T05:03:38;97565.19;;;18.01;100.00
18323;BME280;9287;49.456;11.064;2023-07-02T05:06:06;97571.56;;;17.98;100.00
18323;BME280;9287;49.456;11.064;2023-07-02T05:08:34;97578.19;;;18.04;100.00
18323;BME280;9287;49.456;11.064;2023-07-02T05:11:03;97575.59;;;17.90;100.00
18323;BME280;9287;49.456;11.064;2023-07-02T05:13:31;97586.84;;;18.06;100.00
18323;BME280;9287;49.456;11.064;2023-07-02T05:15:59;97585.88;;;17.86;100.00
18323;BME280;9287;49.456;11.064;2023-07-02T05:18:30;97584.38;;;17.78;100.00
18323;BME280;9287;49.456;11.064;2023-07-02T05:21:01;97589.88;;;17.82;100.00
18323;BME280;9287;49.456;11.064;2023-07-02T05:23:31;97589.16;;;18.12;100.00
18323;BME280;9287;49.456;11.064;2023-07-02T05:25:59;97592.22;;;18.21;100.00
18323;BME280;9287;49.456;11.064;2023-07-02T05:28:27;97589.63;;;18.06;100.00
18323;BME280;9287;49.456;11.064;2023-07-02T05:30:55;97591.69;;;18.33;100.00
18323;BME280;9287;49.456;11.064;2023-07-02T05:33:23;97590.59;;;18.23;100.00
18323;BME280;9287;49.456;11.064;2023-07-02T05:35:51;97587.22;;;18.08;100.00
18323;BME280;9287;49.456;11.064;2023-07-02T05:38:21;97585.44;;;17.91;100.00
18323;BME280;9287;49.456;11.064;2023-07-02T05:40:49;97601.84;;;18.05;100.00
18323;BME280;9287;49.456;11.064;2023-07-02T05:43:17;97602.06;;;18.22;100.00
18323;BME280;9287;49.456;11.064;2023-07-02T05:45:45;97594.84;;;18.35;100.00
18323;BME280;9287;49.456;11.064;2023-07-02T05:48:13;97593.41;;;18.20;100.00
18323;BME280;9287;49.456;11.064;2023-07-02T05:50:41;97585.31;;;18.36;100.00
18323;BME280;9287;49.456;11.064;2023-07-02T05:53:09;97598.63;;;18.48;100.00
18323;BME280;9287;49.456;11.064;2023-07-02T05:55:39;97596.38;;;18.36;100.00
18323;BME280;9287;49.456;11.064;2023-07-02T05:58:08;97597.50;;;18.08;100.00
18323;BME280;9287;49.456;11.064;2023-07-02T06:00:35;97599.69;;;18.24;100.00
18323;BME280;9287;49.456;11.064;2023-07-02T06:03:03;97590.09;;;18.35;100.00
18323;BME280;9287;49.456;11.064;2023-07-02T06:05:31;97604.81;;;18.56;100.00
18323;BME280;9287;49.456;11.064;2023-07-02T06:07:59;97601.44;;;18.07;100.00
18323;BME280;9287;49.456;11.064;2023-07-02T06:10:27;97592.00;;;18.38;100.00
18323;BME280;9287;49.456;11.064;2023-07-02T06:12:56;97605.41;;;19.04;100.00
18323;BME280;9287;49.456;11.064;2023-07-02T06:15:24;97608.00;;;19.15;95.26
18323;BME280;9287;49.456;11.064;2023-07-02T06:17:52;97601.75;;;19.11;94.91
18323;BME280;9287;49.456;11.064;2023-07-02T06:20:20;97616.00;;;19.36;91.36
18323;BME280;9287;49.456;11.064;2023-07-02T06:22:48;97611.69;;;19.05;90.42
18323;BME280;9287;49.456;11.064;2023-07-02T06:25:16;97613.59;;;19.11;85.69
18323;BME280;9287;49.456;11.064;2023-07-02T06:27:44;97618.81;;;19.60;84.43
18323;BME280;9287;49.456;11.064;2023-07-02T06:30:13;97617.72;;;19.54;82.58
18323;BME280;9287;49.456;11.064;2023-07-02T06:32:41;97635.06;;;19.58;84.12
18323;BME280;9287;49.456;11.064;2023-07-02T06:35:09;97629.28;;;19.22;87.04
18323;BME280;9287;49.456;11.064;2023-07-02T06:37:37;97626.81;;;19.00;87.67
18323;BME280;9287;49.456;11.064;2023-07-02T06:40:06;97615.94;;;19.13;86.10
18323;BME280;9287;49.456;11.064;2023-07-02T06:42:34;97630.34;;;19.01;85.48
18323;BME280;9287;49.456;11.064;2023-07-02T06:45:04;97626.44;;;18.98;85.52
18323;BME280;9287;49.456;11.064;2023-07-02T06:47:34;97623.25;;;19.00;83.67
18323;BME280;9287;49.456;11.064;2023-07-02T06:50:03;97629.94;;;19.29;83.51
18323;BME280;9287;49.456;11.064;2023-07-02T06:52:31;97631.41;;;19.37;81.95
18323;BME280;9287;49.456;11.064;2023-07-02T06:54:58;97629.72;;;19.43;76.65
18323;BME280;9287;49.456;11.064;2023-07-02T06:57:26;97634.09;;;19.68;76.94
18323;BME280;9287;49.456;11.064;2023-07-02T06:59:57;97642.16;;;19.59;74.62
18323;BME280;9287;49.456;11.064;2023-07-02T07:02:26;97633.28;;;19.71;71.35
18323;BME280;9287;49.456;11.064;2023-07-02T07:04:56;97629.06;;;19.86;65.99
18323;BME280;9287;49.456;11.064;2023-07-02T07:07:23;97636.63;;;20.05;63.80
18323;BME280;9287;49.456;11.064;2023-07-02T07:09:51;97636.50;;;20.12;64.42
18323;BME280;9287;49.456;11.064;2023-07-02T07:12:19;97634.91;;;20.11;63.75
18323;BME280;9287;49.456;11.064;2023-07-02T07:14:47;97636.00;;;20.17;61.49
18323;BME280;9287;49.456;11.064;2023-07-02T07:17:18;97641.59;;;20.37;62.11
18323;BME280;9287;49.456;11.064;2023-07-02T07:19:46;97626.38;;;20.02;62.64
18323;BME280;9287;49.456;11.064;2023-07-02T07:22:16;97638.50;;;19.89;64.45
18323;BME280;9287;49.456;11.064;2023-07-02T07:24:44;97623.97;;;19.58;67.48
18323;BME280;9287;49.456;11.064;2023-07-02T07:27:13;97630.25;;;19.62;66.78
18323;BME280;9287;49.456;11.064;2023-07-02T07:29:41;97639.22;;;19.42;69.12
18323;BME280;9287;49.456;11.064;2023-07-02T07:32:09;97632.25;;;19.34;68.64
18323;BME280;9287;49.456;11.064;2023-07-02T07:34:37;97637.81;;;19.58;69.07
18323;BME280;9287;49.456;11.064;2023-07-02T07:37:05;97633.91;;;19.78;68.55
18323;BME280;9287;49.456;11.064;2023-07-02T07:39:36;97633.13;;;20.01;68.29
18323;BME280;9287;49.456;11.064;2023-07-02T07:42:05;97637.66;;;19.92;68.80
18323;BME280;9287;49.456;11.064;2023-07-02T07:44:33;97626.91;;;20.96;63.11
18323;BME280;9287;49.456;11.064;2023-07-02T07:47:01;97629.94;;;24.16;47.24
18323;BME280;9287;49.456;11.064;2023-07-02T07:49:29;97632.69;;;23.06;49.31
18323;BME280;9287;49.456;11.064;2023-07-02T07:51:58;97628.06;;;24.01;47.26
18323;BME280;9287;49.456;11.064;2023-07-02T07:54:26;97625.13;;;25.26;43.14
18323;BME280;9287;49.456;11.064;2023-07-02T07:56:55;97625.09;;;26.24;40.23
18323;BME280;9287;49.456;11.064;2023-07-02T07:59:23;97624.63;;;25.58;41.39
18323;BME280;9287;49.456;11.064;2023-07-02T08:01:51;97619.19;;;26.68;38.98
18323;BME280;9287;49.456;11.064;2023-07-02T08:04:19;97625.31;;;25.01;41.51
18323;BME280;9287;49.456;11.064;2023-07-02T08:06:47;97630.91;;;23.88;43.99
18323;BME280;9287;49.456;11.064;2023-07-02T08:09:16;97620.63;;;22.54;47.71
18323;BME280;9287;49.456;11.064;2023-07-02T08:11:44;97630.72;;;22.19;49.57
18323;BME280;9287;49.456;11.064;2023-07-02T08:14:13;97630.25;;;21.76;49.79
18323;BME280;9287;49.456;11.064;2023-07-02T08:16:41;97634.91;;;21.30;50.43
18323;BME280;9287;49.456;11.064;2023-07-02T08:19:09;97641.13;;;22.89;46.26
18323;BME280;9287;49.456;11.064;2023-07-02T08:21:37;97634.13;;;24.34;42.39
18323;BME280;9287;49.456;11.064;2023-07-02T08:24:05;97629.38;;;23.36;44.38
18323;BME280;9287;49.456;11.064;2023-07-02T08:26:34;97641.25;;;22.28;46.83
18323;BME280;9287;49.456;11.064;2023-07-02T08:29:02;97639.72;;;23.23;45.49
18323;BME280;9287;49.456;11.064;2023-07-02T08:31:31;97634.16;;;25.70;40.03
18323;BME280;9287;49.456;11.064;2023-07-02T08:33:59;97640.31;;;26.87;37.97
18323;BME280;9287;49.456;11.064;2023-07-02T08:36:28;97630.53;;;27.43;36.37
18323;BME280;9287;49.456;11.064;2023-07-02T08:38:56;97640.56;;;25.09;39.80
18323;BME280;9287;49.456;11.064;2023-07-02T08:41:24;97637.13;;;23.92;42.72
18323;BME280;9287;49.456;11.064;2023-07-02T08:43:55;97638.38;;;23.15;45.21
18323;BME280;9287;49.456;11.064;2023-07-02T08:46:23;97639.97;;;24.48;44.16
18323;BME280;9287;49.456;11.064;2023-07-02T08:48:53;97626.97;;;26.55;38.70
18323;BME280;9287;49.456;11.064;2023-07-02T08:51:21;97640.25;;;27.24;37.26
18323;BME280;9287;49.456;11.064;2023-07-02T08:53:49;97646.34;;;24.92;40.11
18323;BME280;9287;49.456;11.064;2023-07-02T08:56:17;97641.50;;;24.27;42.40
18323;BME280;9287;49.456;11.064;2023-07-02T08:58:44;97654.56;;;25.89;39.73
18323;BME280;9287;49.456;11.064;2023-07-02T09:01:13;97646.78;;;27.72;36.58
18323;BME280;9287;49.456;11.064;2023-07-02T09:03:43;97640.38;;;27.71;36.42
18323;BME280;9287;49.456;11.064;2023-07-02T09:06:12;97656.31;;;27.98;36.10
18323;BME280;9287;49.456;11.064;2023-07-02T09:08:41;97646.16;;;27.26;37.28
18323;BME280;9287;49.456;11.064;2023-07-02T09:11:11;97651.09;;;28.06;35.73
18323;BME280;9287;49.456;11.064;2023-07-02T09:13:44;97646.53;;;29.39;33.72
18323;BME280;9287;49.456;11.064;2023-07-02T09:16:26;97645.81;;;29.94;32.17
18323;BME280;9287;49.456;11.064;2023-07-02T09:19:00;97643.50;;;27.73;35.02
18323;BME280;9287;49.456;11.064;2023-07-02T09:21:41;97643.72;;;27.61;35.26
18323;BME280;9287;49.456;11.064;2023-07-02T09:24:15;97647.19;;;26.50;37.75
18323;BME280;9287;49.456;11.064;2023-07-02T09:26:44;97641.41;;;26.90;37.23
18323;BME280;9287;49.456;11.064;2023-07-02T09:29:13;97637.84;;;27.50;35.61
18323;BME280;9287;49.456;11.064;2023-07-02T09:31:46;97648.09;;;27.53;35.55
18323;BME280;9287;49.456;11.064;2023-07-02T09:34:36;97650.44;;;28.20;34.85
18323;BME280;9287;49.456;11.064;2023-07-02T09:37:11;97640.06;;;28.65;33.81
18323;BME280;9287;49.456;11.064;2023-07-02T09:39:41;97642.31;;;28.13;34.85
18323;BME280;9287;49.456;11.064;2023-07-02T09:42:10;97633.00;;;27.50;35.91
18323;BME280;9287;49.456;11.064;2023-07-02T09:44:39;97643.41;;;26.89;37.57
18323;BME280;9287;49.456;11.064;2023-07-02T09:47:10;97642.47;;;25.92;39.11
18323;BME280;9287;49.456;11.064;2023-07-02T09:49:43;97639.94;;;25.76;39.22
18323;BME280;9287;49.456;11.064;2023-07-02T09:52:18;97638.09;;;26.00;38.46
18323;BME280;9287;49.456;11.064;2023-07-02T09:54:47;97644.16;;;25.49;39.50
18323;BME280;9287;49.456;11.064;2023-07-02T09:57:15;97645.72;;;25.50;39.71
18323;BME280;9287;49.456;11.064;2023-07-02T09:59:44;97648.69;;;25.96;38.76
18323;BME280;9287;49.456;11.064;2023-07-02T10:02:13;97642.19;;;26.26;37.46
18323;BME280;9287;49.456;11.064;2023-07-02T10:04:42;97637.56;;;26.51;37.92
18323;BME280;9287;49.456;11.064;2023-07-02T10:07:11;97629.59;;;26.67;37.26
18323;BME280;9287;49.456;11.064;2023-07-02T10:09:44;97643.88;;;24.94;39.28
18323;BME280;9287;49.456;11.064;2023-07-02T10:12:20;97641.94;;;24.39;40.95
18323;BME280;9287;49.456;11.064;2023-07-02T10:14:50;97645.81;;;23.94;41.97
18323;BME280;9287;49.456;11.064;2023-07-02T10:17:29;97649.66;;;23.49;43.31
18323;BME280;9287;49.456;11.064;2023-07-02T10:20:01;97645.38;;;23.07;44.96
18323;BME280;9287;49.456;11.064;2023-07-02T10:22:42;97653.25;;;22.83;45.77
18323;BME280;9287;49.456;11.064;2023-07-02T10:25:12;97649.66;;;23.49;44.54
18323;BME280;9287;49.456;11.064;2023-07-02T10:27:42;97655.53;;;23.39;43.93
18323;BME280;9287;49.456;11.064;2023-07-02T10:30:11;97658.78;;;23.37;44.31
18323;BME280;9287;49.456;11.064;2023-07-02T10:32:45;97652.66;;;23.30;44.13
18323;BME280;9287;49.456;11.064;2023-07-02T10:35:17;97654.41;;;23.11;45.75
18323;BME280;9287;49.456;11.064;2023-07-02T10:37:48;97656.81;;;22.83;46.87
18323;BME280;9287;49.456;11.064;2023-07-02T10:40:20;97658.03;;;22.82;46.64
18323;BME280;9287;49.456;11.064;2023-07-02T10:42:53;97659.06;;;22.60;46.92
18323;BME280;9287;49.456;11.064;2023-07-02T10:45:31;97656.41;;;22.40;46.88
18323;BME280;9287;49.456;11.064;2023-07-02T10:48:08;97648.25;;;22.62;46.27
18323;BME280;9287;49.456;11.064;2023-07-02T10:50:39;97655.06;;;22.73;46.18
18323;BME280;9287;49.456;11.064;2023-07-02T10:53:14;97655.53;;;23.39;43.92
18323;BME280;9287;49.456;11.064;2023-07-02T10:55:53;97657.97;;;23.11;43.67
18323;BME280;9287;49.456;11.064;2023-07-02T10:58:30;97657.81;;;22.89;45.05
18323;BME280;9287;49.456;11.064;2023-07-02T11:01:01;97654.06;;;23.09;44.38
18323;BME280;9287;49.456;11.064;2023-07-02T11:03:44;97649.66;;;23.49;43.25
18323;BME280;9287;49.456;11.064;2023-07-02T11:06:15;97652.66;;;23.30;43.60
18323;BME280;9287;49.456;11.064;2023-07-02T11:08:51;97648.63;;;23.31;44.46
18323;BME280;9287;49.456;11.064;2023-07-02T11:11:25;97660.31;;;23.38;43.01
18323;BME280;9287;49.456;11.064;2023-07-02T11:13:57;97648.09;;;23.48;40.74
18323;BME280;9287;49.456;11.064;2023-07-02T11:16:31;97660.78;;;23.24;39.57
18323;BME280;9287;49.456;11.064;2023-07-02T11:19:12;97646.03;;;22.98;40.25
18323;BME280;9287;49.456;11.064;2023-07-02T11:21:51;97644.50;;;23.10;40.66
18323;BME280;9287;49.456;11.064;2023-07-02T11:24:32;97653.63;;;23.23;40.32
18323;BME280;9287;49.456;11.064;2023-07-02T11:27:21;97655.34;;;23.58;39.66
18323;BME280;9287;49.456;11.064;2023-07-02T11:30:01;97660.25;;;23.67;40.13
18323;BME280;9287;49.456;11.064;2023-07-02T11:32:48;97651.31;;;23.85;40.42
18323;BME280;9287;49.456;11.064;2023-07-02T11:35:39;97654.91;;;24.33;40.36
18323;BME280;9287;49.456;11.064;2023-07-02T11:38:10;97648.56;;;24.97;38.19
18323;BME280;9287;49.456;11.064;2023-07-02T11:40:44;97652.06;;;25.42;36.97
18323;BME280;9287;49.456;11.064;2023-07-02T11:43:34;97645.44;;;25.57;35.77
18323;BME280;9287;49.456;11.064;2023-07-02T11:46:08;97637.06;;;24.95;35.83
18323;BME280;9287;49.456;11.064;2023-07-02T11:48:45;97651.34;;;24.19;37.19
18323;BME280;9287;49.456;11.064;2023-07-02T11:51:15;97636.22;;;23.95;36.97
18323;BME280;9287;49.456;11.064;2023-07-02T11:53:45;97638.34;;;23.91;37.06
18323;BME280;9287;49.456;11.064;2023-07-02T11:56:13;97653.34;;;24.32;36.53
18323;BME280;9287;49.456;11.064;2023-07-02T11:58:43;97654.06;;;24.88;36.41
18323;BME280;9287;49.456;11.064;2023-07-02T12:01:11;97647.78;;;24.53;36.89
18323;BME280;9287;49.456;11.064;2023-07-02T12:03:39;97653.25;;;24.57;36.11
18323;BME280;9287;49.456;11.064;2023-07-02T12:06:08;97648.81;;;24.90;36.08
18323;BME280;9287;49.456;11.064;2023-07-02T12:08:36;97657.66;;;25.11;36.26
18323;BME280;9287;49.456;11.064;2023-07-02T12:11:05;97662.72;;;24.81;36.49
18323;BME280;9287;49.456;11.064;2023-07-02T12:13:33;97656.09;;;24.88;36.03
18323;BME280;9287;49.456;11.064;2023-07-02T12:16:04;97654.59;;;24.74;36.83
18323;BME280;9287;49.456;11.064;2023-07-02T12:18:34;97642.72;;;24.61;37.08
18323;BME280;9287;49.456;11.064;2023-07-02T12:21:03;97659.94;;;24.25;37.90
18323;BME280;9287;49.456;11.064;2023-07-02T12:23:31;97644.06;;;24.35;37.63
18323;BME280;9287;49.456;11.064;2023-07-02T12:26:00;97655.34;;;24.18;38.41
18323;BME280;9287;49.456;11.064;2023-07-02T12:28:28;97655.91;;;24.26;38.04
18323;BME280;9287;49.456;11.064;2023-07-02T12:30:56;97657.03;;;24.16;38.24
18323;BME280;9287;49.456;11.064;2023-07-02T12:33:26;97645.16;;;23.90;38.69
18323;BME280;9287;49.456;11.064;2023-07-02T12:35:54;97644.31;;;23.68;38.90
18323;BME280;9287;49.456;11.064;2023-07-02T12:38:22;97640.19;;;23.59;38.77
18323;BME280;9287;49.456;11.064;2023-07-02T12:40:51;97649.22;;;23.64;38.44
18323;BME280;9287;49.456;11.064;2023-07-02T12:43:19;97629.34;;;23.87;38.02
18323;BME280;9287;49.456;11.064;2023-07-02T12:45:48;97627.38;;;24.44;37.28
18323;BME280;9287;49.456;11.064;2023-07-02T12:48:17;97646.56;;;24.76;37.08
18323;BME280;9287;49.456;11.064;2023-07-02T12:50:55;97646.34;;;24.71;37.22
18323;BME280;9287;49.456;11.064;2023-07-02T12:53:27;97651.69;;;24.21;37.08
18323;BME280;9287;49.456;11.064;2023-07-02T12:56:05;97635.34;;;23.98;37.86
18323;BME280;9287;49.456;11.064;2023-07-02T12:58:45;97642.25;;;24.06;37.76
18323;BME280;9287;49.456;11.064;2023-07-02T13:01:13;97637.72;;;24.21;37.71
18323;BME280;9287;49.456;11.064;2023-07-02T13:03:45;97643.75;;;24.54;37.26
18323;BME280;9287;49.456;11.064;2023-07-02T13:06:16;97659.31;;;24.43;37.32
18323;BME280;9287;49.456;11.064;2023-07-02T13:08:43;97644.41;;;24.80;36.73